Startpagina
METAR-TAF:

METAR-TAF

Vliegvelden :

Saint-Yan, Frankrijk

breedte: 46-24-45N, lengte: 004-00-48E, hoogte: 244 m

Actueel weer

Dit bericht is 38 minuten geleden gemaakt, om 01:00 UTC
Wind 4 kt uit het noorden, variërend tussen het noordnoordwesten en het noordoosten
Temperatuur -2°C
Vochtigheid 86%
Druk 1024 hPa
Zicht: 5000 m
nevel

METAR: LFLN 240100Z AUTO 36004KT 340V050 5000 BR NSC M02/M04 Q1024

Tijdstip: 02:38 (01:38 UTC)

Verwachting

Dit bericht is 4 uur en het 5 minuten geleden gemaakt, om 21:33 UTC
Verwachting geldig van 23 om 21 UTC tot 24 om 03 UTC
Wind 5 kt uit het oostnoordoosten
Zicht: 6000 m
Tijdelijke
van 23 om 21 UTC tot 24 om 03 UTC
Zicht: 2000 m
Gebroken wolken op 300 ft
nevel

TAF: LFLN 232133Z 2321/2403 06005KT 6000 NSC TEMPO 2321/2403 2000 BR BKN003

Waarnemingen en weersverwachtingen van meer dan 4000 vliegvelden (METAR en TAF).

De beschikbare stations zijn de gele en rode punten op de kaart.

Ga met uw muis naar het station om de naam te zien.

Klik dan om waarnemingen en weersverwachtingen te zien.

kaart wijzigen: klik op de groene knoppen met een zwart kruis om in te zoomen, op de groene knop met een streepje om uit te zoomen of op de groene pijlen voor aangrenzende kaarten.


METAR-TAF: